Time;durP1;ratioP1;P1;durP2;ratioP2;P2;SDS_P1;SDS_P2;PMS_P1;PMS_P2;Temp;Humidity;BMP_temperature;BMP_pressure;BME280_temperature;BME280_humidity;BME280_pressure;Samples;Min_cycle;Max_cycle;Signal;HPM_P1;HPM_P2
2023/03/04 00:01:59;;;;;;;35.30;18.92;;;;;;;;;;5021504;28;20045;-81
2023/03/04 00:04:25;;;;;;;30.70;18.58;;;;;;;;;;5015393;28;20025;-81
2023/03/04 00:06:51;;;;;;;36.55;18.95;;;;;;;;;;4999853;28;20033;-81
2023/03/04 00:09:17;;;;;;;34.22;18.50;;;;;;;;;;5013667;28;20026;-81
2023/03/04 00:11:43;;;;;;;37.85;20.20;;;;;;;;;;5010921;28;20034;-81
2023/03/04 00:14:09;;;;;;;35.63;19.45;;;;;;;;;;5005045;28;20040;-81
2023/03/04 00:16:35;;;;;;;30.70;18.60;;;;;;;;;;5000329;28;20037;-81
2023/03/04 00:19:01;;;;;;;38.92;18.67;;;;;;;;;;5010344;28;20022;-81
2023/03/04 00:21:27;;;;;;;32.75;18.85;;;;;;;;;;5008994;28;20022;-81
2023/03/04 00:23:53;;;;;;;35.13;19.08;;;;;;;;;;5007337;28;20044;-81
2023/03/04 00:26:19;;;;;;;32.50;18.08;;;;;;;;;;5004292;28;20026;-80
2023/03/04 00:28:45;;;;;;;35.47;17.15;;;;;;;;;;5003324;28;20026;-81
2023/03/04 00:31:11;;;;;;;37.03;18.77;;;;;;;;;;5005280;28;20041;-81
2023/03/04 00:33:39;;;;;;;36.80;18.02;;;;;;;;;;5002989;28;20022;-81
2023/03/04 00:36:05;;;;;;;33.65;19.02;;;;;;;;;;5020428;28;20045;-81
2023/03/04 00:38:31;;;;;;;34.63;18.52;;;;;;;;;;5014453;28;20033;-81
2023/03/04 00:40:57;;;;;;;34.38;18.23;;;;;;;;;;5006946;28;20124;-81
2023/03/04 00:43:23;;;;;;;41.88;19.90;;;;;;;;;;5002452;28;20257;-81
2023/03/04 00:45:49;;;;;;;37.42;17.48;;;;;;;;;;5002928;28;20058;-81
2023/03/04 00:48:15;;;;;;;36.80;17.42;;;;;;;;;;5002914;28;20113;-81
2023/03/04 00:50:41;;;;;;;32.42;16.55;;;;;;;;;;5021269;28;20026;-81
2023/03/04 00:53:07;;;;;;;38.08;20.30;;;;;;;;;;5018901;28;20053;-81
2023/03/04 00:55:33;;;;;;;33.35;17.95;;;;;;;;;;5010268;28;20437;-81
2023/03/04 00:57:59;;;;;;;42.33;18.25;;;;;;;;;;5000738;28;20053;-81
2023/03/04 01:06:32;;;;;;;30.88;17.27;;;;;;;;;;5014319;28;20040;-81
2023/03/04 01:08:58;;;;;;;41.22;18.70;;;;;;;;;;5009059;28;20026;-81
2023/03/04 01:11:24;;;;;;;33.50;17.88;;;;;;;;;;5007946;28;20126;-81
2023/03/04 01:13:50;;;;;;;35.22;17.70;;;;;;;;;;5000500;28;20058;-81
2023/03/04 01:16:16;;;;;;;32.17;17.92;;;;;;;;;;5007587;28;20038;-81
2023/03/04 01:18:43;;;;;;;34.67;18.92;;;;;;;;;;5011223;28;20034;-81
2023/03/04 01:21:10;;;;;;;37.35;19.48;;;;;;;;;;4999145;28;20018;-81
2023/03/04 01:23:36;;;;;;;39.13;19.35;;;;;;;;;;5000270;28;20038;-81
2023/03/04 01:26:03;;;;;;;37.05;18.75;;;;;;;;;;4999760;28;20034;-81
2023/03/04 01:28:29;;;;;;;37.10;18.75;;;;;;;;;;4998806;28;20113;-81
2023/03/04 01:30:55;;;;;;;38.85;18.65;;;;;;;;;;5016248;28;20049;-81
2023/03/04 01:33:21;;;;;;;35.30;19.23;;;;;;;;;;5001035;28;20053;-81
2023/03/04 01:35:47;;;;;;;39.33;18.70;;;;;;;;;;5004441;28;20034;-81
2023/03/04 01:38:13;;;;;;;36.35;19.50;;;;;;;;;;5009508;28;20077;-81
2023/03/04 01:40:39;;;;;;;35.85;19.23;;;;;;;;;;5019158;28;20044;-81
2023/03/04 01:43:05;;;;;;;35.35;18.08;;;;;;;;;;5018352;28;20022;-81
2023/03/04 01:45:31;;;;;;;39.13;20.10;;;;;;;;;;5000609;28;20023;-81
2023/03/04 01:47:58;;;;;;;38.60;19.00;;;;;;;;;;5011706;28;20049;-82
2023/03/04 01:50:29;;;;;;;37.95;19.25;;;;;;;;;;5020191;28;20033;-81
2023/03/04 01:52:55;;;;;;;36.47;19.85;;;;;;;;;;5019057;28;20564;-81
2023/03/04 01:55:22;;;;;;;36.00;19.27;;;;;;;;;;5001350;28;20054;-81
2023/03/04 01:57:49;;;;;;;34.83;18.77;;;;;;;;;;5009754;28;20030;-81
2023/03/04 02:00:29;;;;;;;33.53;17.63;;;;;;;;;;5016541;28;20026;-81
2023/03/04 02:03:00;;;;;;;34.83;18.30;;;;;;;;;;5020591;28;20049;-81
2023/03/04 02:05:26;;;;;;;38.22;18.13;;;;;;;;;;5008333;28;20023;-81
2023/03/04 02:07:53;;;;;;;35.78;18.40;;;;;;;;;;5000405;28;20027;-81
2023/03/04 02:10:19;;;;;;;37.08;19.08;;;;;;;;;;5001722;28;20022;-81
2023/03/04 02:12:45;;;;;;;39.50;20.95;;;;;;;;;;5000822;28;20019;-81
2023/03/04 02:15:11;;;;;;;35.42;17.77;;;;;;;;;;5009852;28;20048;-81
2023/03/04 02:17:37;;;;;;;34.15;17.70;;;;;;;;;;5011844;28;20557;-82
2023/03/04 02:20:06;;;;;;;35.92;19.38;;;;;;;;;;5008633;28;20027;-81
2023/03/04 02:22:37;;;;;;;34.08;19.23;;;;;;;;;;4999798;28;20014;-81
2023/03/04 02:25:13;;;;;;;39.10;18.52;;;;;;;;;;5000672;28;20101;-81
2023/03/04 02:27:39;;;;;;;35.38;17.75;;;;;;;;;;5013686;28;20029;-81
2023/03/04 02:30:05;;;;;;;34.15;18.08;;;;;;;;;;5004197;28;20338;-81
2023/03/04 02:32:31;;;;;;;41.35;18.48;;;;;;;;;;5013561;28;20498;-81
2023/03/04 02:34:57;;;;;;;32.88;17.80;;;;;;;;;;5015468;28;20057;-81
2023/03/04 02:37:23;;;;;;;35.58;18.35;;;;;;;;;;5018825;28;20026;-81
2023/03/04 02:39:49;;;;;;;32.88;16.95;;;;;;;;;;5020819;28;20045;-81
2023/03/04 02:42:17;;;;;;;29.55;16.85;;;;;;;;;;5006427;28;20030;-81
2023/03/04 02:44:46;;;;;;;31.90;17.33;;;;;;;;;;5018389;28;20029;-81
2023/03/04 02:47:13;;;;;;;28.55;16.52;;;;;;;;;;5020271;28;20505;-80
2023/03/04 02:49:40;;;;;;;32.30;15.60;;;;;;;;;;5016253;28;20099;-80
2023/03/04 02:52:12;;;;;;;24.50;15.27;;;;;;;;;;5019886;28;20090;-80
2023/03/04 02:54:38;;;;;;;31.45;17.80;;;;;;;;;;5011208;28;20026;-82
2023/03/04 03:00:08;;;;;;;30.38;16.70;;;;;;;;;;5023185;28;20405;-82
2023/03/04 03:02:34;;;;;;;29.73;15.82;;;;;;;;;;5023026;28;20026;-81
2023/03/04 03:05:00;;;;;;;26.90;15.15;;;;;;;;;;5010271;28;20363;-82
2023/03/04 03:07:26;;;;;;;33.50;15.13;;;;;;;;;;5012422;28;20027;-82
2023/03/04 03:09:52;;;;;;;27.60;15.88;;;;;;;;;;5001813;28;20596;-82
2023/03/04 03:12:18;;;;;;;30.25;14.77;;;;;;;;;;5002106;28;20110;-82
2023/03/04 03:14:44;;;;;;;32.70;16.02;;;;;;;;;;5017014;28;20477;-81
2023/03/04 03:17:10;;;;;;;26.15;14.65;;;;;;;;;;5019457;28;20108;-81
2023/03/04 03:19:36;;;;;;;32.45;16.77;;;;;;;;;;5003309;28;20482;-82
2023/03/04 03:22:02;;;;;;;26.77;15.23;;;;;;;;;;5002437;28;20022;-81
2023/03/04 03:24:28;;;;;;;30.73;14.80;;;;;;;;;;5008259;28;20474;-81
2023/03/04 03:26:54;;;;;;;26.55;14.18;;;;;;;;;;5002131;28;20026;-82
2023/03/04 03:29:20;;;;;;;30.52;14.68;;;;;;;;;;5001237;28;20553;-82
2023/03/04 03:31:46;;;;;;;30.73;15.68;;;;;;;;;;5000600;28;20030;-82
2023/03/04 03:34:12;;;;;;;23.65;13.40;;;;;;;;;;5007135;28;20027;-81
2023/03/04 03:36:38;;;;;;;27.05;14.82;;;;;;;;;;5003063;28;20085;-82
2023/03/04 03:42:13;;;;;;;28.40;14.38;;;;;;;;;;5009974;28;20042;-81
2023/03/04 03:44:39;;;;;;;27.63;12.27;;;;;;;;;;5003641;28;20032;-82
2023/03/04 03:47:06;;;;;;;26.38;13.82;;;;;;;;;;5006028;28;20117;-81
2023/03/04 03:49:32;;;;;;;25.63;12.60;;;;;;;;;;5018393;28;20030;-82
2023/03/04 03:51:58;;;;;;;25.98;13.63;;;;;;;;;;5019601;28;20025;-82
2023/03/04 03:54:24;;;;;;;25.05;13.30;;;;;;;;;;5015751;28;20402;-82
2023/03/04 03:56:50;;;;;;;22.65;12.48;;;;;;;;;;5012284;28;20034;-82
2023/03/04 03:59:16;;;;;;;25.13;13.68;;;;;;;;;;5018542;28;20058;-82
2023/03/04 04:01:42;;;;;;;24.65;12.95;;;;;;;;;;5010698;28;20034;-81
2023/03/04 04:04:08;;;;;;;25.50;13.32;;;;;;;;;;5005988;28;20030;-82
2023/03/04 04:06:34;;;;;;;27.88;14.00;;;;;;;;;;5018514;28;20033;-81
2023/03/04 04:09:00;;;;;;;29.48;14.00;;;;;;;;;;5009206;28;20406;-81
2023/03/04 04:11:27;;;;;;;23.77;13.52;;;;;;;;;;5011706;28;20037;-81
2023/03/04 04:13:53;;;;;;;30.52;14.82;;;;;;;;;;5015963;28;20089;-81
2023/03/04 04:16:19;;;;;;;27.63;14.15;;;;;;;;;;5008562;28;20125;-82
2023/03/04 04:18:45;;;;;;;24.92;12.98;;;;;;;;;;5018937;28;20033;-81
2023/03/04 04:21:11;;;;;;;28.17;13.65;;;;;;;;;;5009767;28;20092;-81
2023/03/04 04:23:37;;;;;;;25.17;13.55;;;;;;;;;;5016473;28;20050;-82
2023/03/04 04:26:03;;;;;;;29.95;14.43;;;;;;;;;;5022779;28;20129;-82
2023/03/04 04:28:29;;;;;;;28.80;15.40;;;;;;;;;;5007370;28;20030;-81
2023/03/04 04:30:55;;;;;;;31.20;15.68;;;;;;;;;;5013915;28;20394;-83
2023/03/04 04:33:21;;;;;;;26.55;15.05;;;;;;;;;;5003562;28;20038;-81
2023/03/04 04:35:47;;;;;;;30.35;15.35;;;;;;;;;;4999686;28;20057;-81
2023/03/04 04:38:13;;;;;;;31.48;15.95;;;;;;;;;;5016039;28;20478;-81
2023/03/04 04:40:39;;;;;;;29.05;14.90;;;;;;;;;;5001421;28;20022;-81
2023/03/04 04:43:05;;;;;;;28.98;14.32;;;;;;;;;;5005497;28;20385;-81
2023/03/04 04:45:31;;;;;;;31.40;16.10;;;;;;;;;;5002505;28;20022;-81
2023/03/04 04:47:57;;;;;;;27.05;15.15;;;;;;;;;;5005328;28;20041;-81
2023/03/04 04:50:24;;;;;;;29.10;16.30;;;;;;;;;;5004293;28;20367;-82
2023/03/04 04:52:50;;;;;;;34.65;16.35;;;;;;;;;;5015166;28;20037;-81
2023/03/04 04:55:16;;;;;;;31.85;16.35;;;;;;;;;;5021212;28;20033;-82
2023/03/04 04:57:42;;;;;;;32.88;16.45;;;;;;;;;;5023289;28;20101;-81
2023/03/04 05:00:09;;;;;;;33.25;18.17;;;;;;;;;;5017258;28;20053;-82
2023/03/04 05:02:36;;;;;;;30.27;18.25;;;;;;;;;;5024588;28;20525;-82
2023/03/04 05:05:03;;;;;;;33.80;17.92;;;;;;;;;;5025262;28;20022;-81
2023/03/04 05:07:29;;;;;;;30.05;17.98;;;;;;;;;;5014802;28;20365;-81
2023/03/04 05:09:55;;;;;;;31.13;17.08;;;;;;;;;;5026015;28;20061;-82
2023/03/04 05:12:21;;;;;;;32.28;16.17;;;;;;;;;;5010040;28;20034;-81
2023/03/04 05:14:47;;;;;;;34.03;18.13;;;;;;;;;;5002676;28;20034;-81
2023/03/04 05:17:13;;;;;;;31.77;18.05;;;;;;;;;;5005115;28;20501;-81
2023/03/04 05:19:39;;;;;;;35.38;17.73;;;;;;;;;;5016725;28;20033;-81
2023/03/04 05:22:05;;;;;;;28.20;15.60;;;;;;;;;;5007857;28;20037;-81
2023/03/04 05:24:31;;;;;;;30.58;17.25;;;;;;;;;;5010074;28;20029;-81
2023/03/04 05:26:57;;;;;;;29.30;16.35;;;;;;;;;;5021550;28;20026;-81
2023/03/04 05:29:23;;;;;;;35.83;17.55;;;;;;;;;;5018970;28;20040;-82
2023/03/04 05:31:49;;;;;;;32.42;17.60;;;;;;;;;;5015134;28;20058;-81
2023/03/04 05:34:15;;;;;;;32.03;17.38;;;;;;;;;;5002906;28;20033;-82
2023/03/04 05:36:41;;;;;;;28.73;15.68;;;;;;;;;;5010182;28;20060;-81
2023/03/04 05:39:07;;;;;;;33.25;16.63;;;;;;;;;;5027363;28;20041;-82
2023/03/04 05:41:33;;;;;;;30.20;15.50;;;;;;;;;;5012115;28;20018;-81
2023/03/04 05:43:59;;;;;;;27.80;16.23;;;;;;;;;;5025266;28;20030;-81
2023/03/04 05:46:25;;;;;;;33.50;16.67;;;;;;;;;;5020170;28;20053;-81
2023/03/04 05:48:51;;;;;;;28.90;15.10;;;;;;;;;;5009382;28;20034;-81
2023/03/04 05:51:17;;;;;;;31.58;15.70;;;;;;;;;;5002067;28;20037;-80
2023/03/04 05:53:44;;;;;;;26.60;15.73;;;;;;;;;;5015623;28;20030;-80
2023/03/04 05:56:11;;;;;;;29.58;16.30;;;;;;;;;;5010724;28;20486;-81
2023/03/04 05:58:37;;;;;;;32.92;15.27;;;;;;;;;;5000994;28;20037;-81
2023/03/04 06:01:03;;;;;;;29.13;16.13;;;;;;;;;;5001881;28;20049;-81
2023/03/04 06:03:29;;;;;;;28.30;14.73;;;;;;;;;;4999411;28;20490;-81
2023/03/04 06:05:55;;;;;;;28.65;15.45;;;;;;;;;;5005855;28;20117;-81
2023/03/04 06:08:21;;;;;;;29.83;17.23;;;;;;;;;;5025414;28;20105;-81
2023/03/04 06:10:47;;;;;;;33.92;15.77;;;;;;;;;;5030434;28;20443;-81
2023/03/04 06:13:13;;;;;;;34.30;15.73;;;;;;;;;;5018250;28;20030;-80
2023/03/04 06:15:39;;;;;;;27.40;15.07;;;;;;;;;;5017755;28;20022;-82
2023/03/04 06:18:06;;;;;;;30.58;15.95;;;;;;;;;;4998870;28;20101;-82
2023/03/04 06:20:32;;;;;;;28.65;15.93;;;;;;;;;;5012127;28;20045;-82
2023/03/04 06:22:58;;;;;;;30.65;15.57;;;;;;;;;;5007003;28;20018;-81
2023/03/04 06:25:24;;;;;;;33.88;17.08;;;;;;;;;;5012440;28;20507;-82
2023/03/04 06:27:51;;;;;;;31.50;16.75;;;;;;;;;;5017125;28;20034;-81
2023/03/04 06:30:17;;;;;;;31.10;17.35;;;;;;;;;;5016078;28;20529;-81
2023/03/04 06:32:43;;;;;;;30.00;17.00;;;;;;;;;;5012361;28;20022;-81
2023/03/04 06:35:12;;;;;;;32.78;18.05;;;;;;;;;;5002981;28;20057;-82
2023/03/04 06:37:38;;;;;;;37.15;19.33;;;;;;;;;;5013583;28;20117;-81
2023/03/04 06:40:06;;;;;;;34.60;20.02;;;;;;;;;;5015094;28;20096;-81
2023/03/04 06:42:32;;;;;;;37.47;22.45;;;;;;;;;;5008030;28;20022;-81
2023/03/04 06:44:58;;;;;;;44.03;21.02;;;;;;;;;;5020278;28;20124;-81
2023/03/04 06:47:24;;;;;;;41.65;23.85;;;;;;;;;;5018197;28;20058;-82
2023/03/04 06:49:51;;;;;;;48.70;25.13;;;;;;;;;;5017697;28;20030;-81
2023/03/04 06:52:17;;;;;;;63.75;32.47;;;;;;;;;;5016801;28;20038;-81
2023/03/04 06:54:43;;;;;;;73.22;35.53;;;;;;;;;;5014737;28;20038;-81
2023/03/04 06:57:09;;;;;;;59.85;33.05;;;;;;;;;;5005514;28;20030;-81
2023/03/04 06:59:35;;;;;;;58.70;33.05;;;;;;;;;;4998788;28;20085;-81
2023/03/04 07:02:01;;;;;;;58.38;29.38;;;;;;;;;;5013186;28;20041;-81
2023/03/04 07:04:27;;;;;;;49.55;27.48;;;;;;;;;;5016097;28;20056;-81
2023/03/04 07:06:53;;;;;;;50.05;26.80;;;;;;;;;;5011693;28;20034;-81
2023/03/04 07:09:19;;;;;;;55.83;28.70;;;;;;;;;;5006146;28;20034;-82
2023/03/04 07:11:45;;;;;;;49.38;27.83;;;;;;;;;;5003981;28;20053;-81
2023/03/04 07:14:12;;;;;;;52.45;26.77;;;;;;;;;;5012069;28;20022;-81
2023/03/04 07:16:38;;;;;;;47.80;28.10;;;;;;;;;;5008866;28;20057;-84
2023/03/04 07:19:04;;;;;;;54.83;27.92;;;;;;;;;;5016964;28;20034;-81
2023/03/04 07:21:30;;;;;;;47.20;27.75;;;;;;;;;;5009805;28;20394;-81
2023/03/04 07:23:56;;;;;;;46.35;26.02;;;;;;;;;;5013820;28;20470;-81
2023/03/04 07:26:22;;;;;;;49.53;27.98;;;;;;;;;;5022537;28;20030;-82
2023/03/04 07:28:48;;;;;;;47.08;26.73;;;;;;;;;;5039595;28;20030;-81
2023/03/04 07:31:23;;;;;;;49.92;27.13;;;;;;;;;;5012783;28;20064;-81
2023/03/04 07:33:50;;;;;;;42.22;25.58;;;;;;;;;;5011518;28;20022;-81
2023/03/04 07:36:18;;;;;;;46.80;25.92;;;;;;;;;;5004782;28;20034;-81
2023/03/04 07:38:45;;;;;;;43.83;24.27;;;;;;;;;;5001443;28;20022;-81
2023/03/04 07:41:11;;;;;;;46.92;26.38;;;;;;;;;;5007177;28;20029;-82
2023/03/04 07:43:37;;;;;;;43.60;22.45;;;;;;;;;;5017802;28;20026;-82
2023/03/04 07:46:03;;;;;;;46.08;26.65;;;;;;;;;;5021168;28;20037;-81
2023/03/04 07:48:29;;;;;;;40.47;22.83;;;;;;;;;;5020834;28;20105;-81
2023/03/04 07:51:02;;;;;;;38.53;22.85;;;;;;;;;;5012811;28;20450;-81
2023/03/04 07:53:28;;;;;;;37.05;22.40;;;;;;;;;;5020300;28;20038;-81
2023/03/04 07:55:54;;;;;;;45.10;24.35;;;;;;;;;;5017222;28;20030;-81
2023/03/04 07:58:20;;;;;;;41.53;22.80;;;;;;;;;;5021342;28;20096;-81
2023/03/04 08:00:46;;;;;;;39.58;24.33;;;;;;;;;;5015589;28;20026;-81
2023/03/04 08:03:12;;;;;;;44.75;25.05;;;;;;;;;;5001490;28;20090;-82
2023/03/04 08:05:39;;;;;;;42.78;24.88;;;;;;;;;;5016476;28;20058;-82
2023/03/04 08:08:05;;;;;;;41.03;22.25;;;;;;;;;;5021765;28;20397;-81
2023/03/04 08:10:31;;;;;;;41.50;22.70;;;;;;;;;;5018779;28;20109;-81
2023/03/04 08:12:57;;;;;;;37.03;22.85;;;;;;;;;;5008841;28;20117;-81
2023/03/04 08:15:23;;;;;;;41.17;22.95;;;;;;;;;;5017386;28;20551;-81
2023/03/04 08:17:49;;;;;;;34.97;21.92;;;;;;;;;;5006048;28;20512;-82
2023/03/04 08:20:15;;;;;;;39.67;23.85;;;;;;;;;;5002221;28;20023;-81
2023/03/04 08:22:41;;;;;;;40.75;23.13;;;;;;;;;;5007695;28;20033;-82
2023/03/04 08:25:08;;;;;;;39.03;21.77;;;;;;;;;;5007656;28;20070;-81
2023/03/04 08:27:34;;;;;;;37.45;21.48;;;;;;;;;;5000164;28;20113;-81
2023/03/04 08:30:00;;;;;;;40.20;22.92;;;;;;;;;;5013284;28;20022;-81
2023/03/04 08:32:26;;;;;;;41.20;24.60;;;;;;;;;;5015271;28;20057;-81
2023/03/04 08:34:54;;;;;;;38.08;22.85;;;;;;;;;;5009466;28;20559;-81
2023/03/04 08:37:20;;;;;;;37.58;21.98;;;;;;;;;;5015874;28;20022;-82
2023/03/04 08:39:46;;;;;;;39.05;21.02;;;;;;;;;;5020613;28;20508;-80
2023/03/04 08:42:11;;;;;;;38.70;22.38;;;;;;;;;;5019505;28;20040;-81
2023/03/04 08:44:37;;;;;;;36.05;20.48;;;;;;;;;;5018260;28;20018;-81
2023/03/04 08:47:03;;;;;;;34.05;19.48;;;;;;;;;;5024571;28;20046;-82
2023/03/04 08:49:30;;;;;;;30.05;19.73;;;;;;;;;;5008514;28;20045;-81
2023/03/04 08:51:56;;;;;;;29.85;18.42;;;;;;;;;;5006113;28;20026;-82
2023/03/04 08:54:21;;;;;;;35.88;18.77;;;;;;;;;;5013457;28;20148;-81
2023/03/04 08:56:48;;;;;;;25.92;16.65;;;;;;;;;;5003345;28;20117;-81
2023/03/04 08:59:14;;;;;;;30.85;16.92;;;;;;;;;;5013486;28;20041;-81
2023/03/04 09:01:40;;;;;;;29.55;17.65;;;;;;;;;;5016627;28;20030;-81
2023/03/04 09:04:06;;;;;;;28.77;16.85;;;;;;;;;;5002279;28;20040;-81
2023/03/04 09:06:32;;;;;;;26.80;17.63;;;;;;;;;;5018443;28;20054;-81
2023/03/04 09:12:01;;;;;;;27.25;15.90;;;;;;;;;;5018421;28;20033;-80
2023/03/04 09:14:28;;;;;;;26.48;15.10;;;;;;;;;;5012659;28;20029;-80
2023/03/04 09:16:54;;;;;;;25.65;14.45;;;;;;;;;;5017676;28;20091;-82
2023/03/04 09:19:20;;;;;;;25.08;14.93;;;;;;;;;;5016808;28;20553;-81
2023/03/04 09:21:45;;;;;;;22.70;13.95;;;;;;;;;;5015690;28;20038;-81
2023/03/04 09:24:12;;;;;;;26.65;14.45;;;;;;;;;;5014274;28;20030;-80
2023/03/04 09:26:38;;;;;;;24.00;14.18;;;;;;;;;;5029676;28;20057;-82
2023/03/04 09:29:04;;;;;;;23.27;13.98;;;;;;;;;;5039271;28;20026;-79
2023/03/04 09:31:30;;;;;;;22.92;13.25;;;;;;;;;;5014227;28;20025;-81
2023/03/04 09:33:58;;;;;;;22.65;14.20;;;;;;;;;;5013060;28;20034;-80
2023/03/04 09:36:24;;;;;;;21.60;13.20;;;;;;;;;;4999081;28;20568;-82
2023/03/04 09:38:50;;;;;;;22.23;12.38;;;;;;;;;;4997429;28;20026;-81
2023/03/04 09:41:18;;;;;;;24.00;13.30;;;;;;;;;;5012912;28;20029;-81
2023/03/04 09:43:44;;;;;;;21.17;12.75;;;;;;;;;;5020490;28;20022;-82
2023/03/04 09:46:14;;;;;;;21.63;13.15;;;;;;;;;;5017414;28;20025;-80
2023/03/04 09:48:46;;;;;;;23.98;13.02;;;;;;;;;;5018531;28;20029;-81
2023/03/04 09:51:23;;;;;;;21.35;12.70;;;;;;;;;;5007104;28;20031;-81
2023/03/04 09:53:56;;;;;;;22.17;14.82;;;;;;;;;;5003094;28;20057;-81
2023/03/04 09:56:22;;;;;;;16.73;12.25;;;;;;;;;;5000156;28;20034;-81
2023/03/04 09:58:54;;;;;;;21.13;12.38;;;;;;;;;;5017867;28;20176;-81
2023/03/04 10:01:25;;;;;;;21.73;12.93;;;;;;;;;;5014466;28;20387;-80
2023/03/04 10:03:54;;;;;;;24.65;12.77;;;;;;;;;;5020306;28;20024;-81
2023/03/04 10:06:21;;;;;;;18.65;11.98;;;;;;;;;;5005117;28;20103;-80
2023/03/04 10:08:59;;;;;;;19.63;11.85;;;;;;;;;;5007536;28;20061;-81
2023/03/04 10:11:25;;;;;;;21.05;12.32;;;;;;;;;;5021531;28;20044;-81
2023/03/04 10:13:55;;;;;;;19.67;12.20;;;;;;;;;;5017656;28;20060;-80
2023/03/04 10:16:22;;;;;;;20.58;12.75;;;;;;;;;;4998568;28;20282;-80
2023/03/04 10:18:55;;;;;;;20.38;12.35;;;;;;;;;;5000167;28;20387;-82
2023/03/04 10:21:23;;;;;;;22.58;12.30;;;;;;;;;;5000571;28;20029;-81
2023/03/04 10:23:49;;;;;;;21.52;12.52;;;;;;;;;;4997969;28;20018;-81
2023/03/04 10:29:20;;;;;;;21.58;11.93;;;;;;;;;;4999315;28;20077;-81
2023/03/04 10:31:47;;;;;;;22.15;13.20;;;;;;;;;;5000087;28;20032;-81
2023/03/04 10:34:14;;;;;;;22.75;13.18;;;;;;;;;;5002484;28;20037;-81
2023/03/04 10:36:58;;;;;;;20.52;12.20;;;;;;;;;;5008916;28;20018;-81
2023/03/04 10:39:27;;;;;;;22.42;13.48;;;;;;;;;;5001617;28;20101;-81
2023/03/04 10:41:55;;;;;;;20.23;12.20;;;;;;;;;;5021393;28;20034;-81
2023/03/04 10:44:21;;;;;;;21.13;13.80;;;;;;;;;;4999490;28;20065;-81
2023/03/04 10:46:48;;;;;;;22.15;12.65;;;;;;;;;;5007514;28;20038;-82
2023/03/04 10:49:16;;;;;;;18.35;12.32;;;;;;;;;;5017737;28;20033;-83
2023/03/04 10:51:43;;;;;;;19.92;11.95;;;;;;;;;;5020938;28;20034;-83
2023/03/04 10:54:17;;;;;;;18.83;11.90;;;;;;;;;;5019913;28;20057;-82
2023/03/04 10:56:52;;;;;;;21.85;12.07;;;;;;;;;;5015341;28;20061;-83
2023/03/04 10:59:32;;;;;;;21.27;12.18;;;;;;;;;;5018163;28;20029;-81
2023/03/04 11:01:59;;;;;;;21.25;12.07;;;;;;;;;;4998633;28;20019;-83
2023/03/04 11:04:26;;;;;;;23.20;12.23;;;;;;;;;;5014475;28;20026;-83
2023/03/04 11:06:52;;;;;;;17.48;11.18;;;;;;;;;;5000276;28;20044;-81
2023/03/04 11:09:23;;;;;;;15.90;9.63;;;;;;;;;;5003062;28;20433;-81
2023/03/04 11:11:50;;;;;;;22.13;11.57;;;;;;;;;;5007626;28;20060;-81
2023/03/04 11:14:36;;;;;;;21.60;11.70;;;;;;;;;;5014381;28;20293;-81
2023/03/04 11:17:16;;;;;;;19.92;12.27;;;;;;;;;;5003825;28;20494;-80
2023/03/04 11:19:44;;;;;;;22.33;12.15;;;;;;;;;;5006134;28;20022;-80
2023/03/04 11:22:13;;;;;;;20.33;12.52;;;;;;;;;;5004402;28;20054;-81
2023/03/04 11:24:39;;;;;;;19.10;11.40;;;;;;;;;;5013918;28;20073;-81
2023/03/04 11:27:11;;;;;;;19.63;11.32;;;;;;;;;;5013695;28;20500;-80
2023/03/04 11:29:43;;;;;;;20.20;9.85;;;;;;;;;;5012285;28;20032;-81
2023/03/04 11:32:20;;;;;;;20.30;11.45;;;;;;;;;;5003592;28;20056;-81
2023/03/04 11:35:06;;;;;;;18.15;10.85;;;;;;;;;;5007129;28;20153;-80
2023/03/04 11:37:32;;;;;;;17.48;10.93;;;;;;;;;;4999789;28;20410;-82
2023/03/04 11:40:02;;;;;;;18.98;10.93;;;;;;;;;;5005488;28;20037;-82
2023/03/04 11:42:38;;;;;;;18.30;10.77;;;;;;;;;;5000039;28;20026;-82
2023/03/04 11:45:11;;;;;;;15.77;10.32;;;;;;;;;;5008325;28;20036;-82
2023/03/04 11:47:55;;;;;;;17.48;10.35;;;;;;;;;;5017074;28;20101;-82
2023/03/04 11:50:22;;;;;;;15.98;9.48;;;;;;;;;;5012287;28;20029;-82
2023/03/04 11:52:54;;;;;;;17.95;9.95;;;;;;;;;;5001916;28;20023;-83
2023/03/04 11:55:41;;;;;;;17.17;10.57;;;;;;;;;;5010119;28;20301;-83
2023/03/04 11:58:13;;;;;;;17.65;10.85;;;;;;;;;;5017121;28;20100;-82
2023/03/04 12:00:45;;;;;;;18.50;10.27;;;;;;;;;;5021851;28;20053;-83
2023/03/04 12:03:20;;;;;;;15.88;9.45;;;;;;;;;;5002022;28;20529;-82
2023/03/04 12:05:53;;;;;;;15.88;8.85;;;;;;;;;;5007180;28;20045;-82
2023/03/04 12:08:33;;;;;;;14.32;9.68;;;;;;;;;;5023579;28;20022;-83
2023/03/04 12:11:00;;;;;;;16.20;9.98;;;;;;;;;;5000954;28;20383;-81
2023/03/04 12:13:35;;;;;;;17.02;10.20;;;;;;;;;;5015167;28;20105;-81
2023/03/04 12:16:01;;;;;;;17.17;9.52;;;;;;;;;;5003836;28;20058;-82
2023/03/04 12:18:30;;;;;;;15.63;9.05;;;;;;;;;;4999480;28;20032;-82
2023/03/04 12:21:06;;;;;;;14.55;7.97;;;;;;;;;;5001625;28;20230;-82
2023/03/04 12:23:43;;;;;;;14.00;9.10;;;;;;;;;;5003662;28;20014;-82
2023/03/04 12:26:19;;;;;;;14.15;8.52;;;;;;;;;;5008235;28;20551;-82
2023/03/04 12:29:03;;;;;;;14.27;9.05;;;;;;;;;;5001436;28;20061;-83
2023/03/04 12:31:33;;;;;;;12.77;7.97;;;;;;;;;;4997934;28;20022;-83
2023/03/04 12:33:59;;;;;;;14.15;8.25;;;;;;;;;;5005488;28;20029;-81
2023/03/04 12:36:37;;;;;;;13.88;8.10;;;;;;;;;;5017856;28;20033;-82
2023/03/04 12:39:21;;;;;;;13.15;7.43;;;;;;;;;;5024540;28;20556;-81
2023/03/04 12:42:06;;;;;;;13.10;8.60;;;;;;;;;;5025883;28;20070;-80
2023/03/04 12:44:56;;;;;;;12.77;7.78;;;;;;;;;;5016672;28;20029;-80
2023/03/04 12:47:25;;;;;;;14.48;7.80;;;;;;;;;;5013940;28;20208;-82
2023/03/04 12:50:09;;;;;;;13.95;7.30;;;;;;;;;;5012555;28;20025;-80
2023/03/04 12:52:39;;;;;;;12.98;8.13;;;;;;;;;;5021818;28;20041;-81
2023/03/04 12:55:10;;;;;;;13.05;7.35;;;;;;;;;;5023534;28;20029;-82
2023/03/04 12:57:37;;;;;;;12.80;7.50;;;;;;;;;;5011660;28;20478;-82
2023/03/04 13:00:12;;;;;;;14.25;7.90;;;;;;;;;;5003451;28;20040;-81
2023/03/04 13:02:54;;;;;;;12.27;7.22;;;;;;;;;;5009418;28;20022;-81
2023/03/04 13:05:23;;;;;;;13.05;8.02;;;;;;;;;;4999947;28;20078;-81
2023/03/04 13:08:12;;;;;;;14.23;7.60;;;;;;;;;;5014728;28;20014;-82
2023/03/04 13:10:38;;;;;;;13.38;7.63;;;;;;;;;;5007642;28;20041;-80
2023/03/04 13:16:10;;;;;;;15.90;8.55;;;;;;;;;;5013076;28;20137;-81
2023/03/04 13:18:38;;;;;;;12.85;7.07;;;;;;;;;;5012095;28;20409;-80
2023/03/04 13:21:24;;;;;;;13.10;8.48;;;;;;;;;;5005232;28;20022;-80
2023/03/04 13:23:51;;;;;;;11.95;7.40;;;;;;;;;;5008973;28;20027;-81
2023/03/04 13:26:17;;;;;;;14.30;8.32;;;;;;;;;;5015155;28;20030;-81
2023/03/04 13:28:43;;;;;;;14.10;7.93;;;;;;;;;;5013894;28;20017;-80
2023/03/04 13:31:09;;;;;;;14.05;7.78;;;;;;;;;;5023612;28;20040;-82
2023/03/04 13:33:35;;;;;;;14.32;8.73;;;;;;;;;;5001740;28;20026;-81
2023/03/04 13:36:07;;;;;;;15.05;8.40;;;;;;;;;;5003372;28;20120;-80
2023/03/04 13:38:35;;;;;;;11.48;7.38;;;;;;;;;;5008702;28;20036;-80
2023/03/04 13:41:07;;;;;;;13.82;8.30;;;;;;;;;;5017514;28;20026;-81
2023/03/04 13:43:46;;;;;;;15.33;7.97;;;;;;;;;;5004916;28;20018;-80
2023/03/04 13:46:18;;;;;;;11.65;7.68;;;;;;;;;;5000854;28;20050;-81
2023/03/04 13:48:44;;;;;;;10.37;6.53;;;;;;;;;;5017731;28;20030;-81
2023/03/04 13:51:31;;;;;;;13.55;7.30;;;;;;;;;;5005660;28;20304;-82
2023/03/04 13:54:01;;;;;;;14.38;7.70;;;;;;;;;;5004401;28;20599;-81
2023/03/04 13:56:27;;;;;;;18.83;11.32;;;;;;;;;;5007444;28;20030;-79
2023/03/04 13:59:09;;;;;;;18.50;10.82;;;;;;;;;;4997269;28;20061;-81
2023/03/04 14:01:34;;;;;;;19.20;11.90;;;;;;;;;;4997930;28;20498;-80
2023/03/04 14:04:01;;;;;;;16.38;10.65;;;;;;;;;;5011139;28;20026;-81
2023/03/04 14:06:28;;;;;;;20.30;12.23;;;;;;;;;;5003535;28;20113;-80
2023/03/04 14:08:55;;;;;;;21.30;11.30;;;;;;;;;;5013533;28;20405;-80
2023/03/04 14:11:24;;;;;;;18.48;11.23;;;;;;;;;;5007832;28;20325;-80
2023/03/04 14:13:51;;;;;;;19.00;11.70;;;;;;;;;;4998507;28;20363;-80
2023/03/04 14:16:20;;;;;;;18.85;11.07;;;;;;;;;;5013151;28;20429;-80
2023/03/04 14:18:57;;;;;;;20.52;12.10;;;;;;;;;;5014383;28;20033;-80
2023/03/04 14:21:23;;;;;;;21.95;12.35;;;;;;;;;;5013622;28;20026;-78
2023/03/04 14:23:59;;;;;;;22.33;11.73;;;;;;;;;;5016800;28;20026;-80
2023/03/04 14:26:25;;;;;;;21.00;12.43;;;;;;;;;;5009284;28;20025;-80
2023/03/04 14:28:56;;;;;;;22.10;13.27;;;;;;;;;;5017848;28;20025;-80
2023/03/04 14:31:23;;;;;;;22.15;13.52;;;;;;;;;;5010796;28;20030;-80
2023/03/04 14:34:00;;;;;;;21.50;12.80;;;;;;;;;;5016696;28;20033;-80
2023/03/04 14:36:27;;;;;;;24.63;14.85;;;;;;;;;;5014267;28;20022;-80
2023/03/04 14:38:55;;;;;;;22.70;13.82;;;;;;;;;;5005752;28;20122;-80
2023/03/04 14:41:26;;;;;;;23.33;13.05;;;;;;;;;;5012865;28;20553;-81
2023/03/04 14:43:55;;;;;;;23.70;13.48;;;;;;;;;;5018511;28;20018;-80
2023/03/04 14:46:22;;;;;;;25.05;13.52;;;;;;;;;;5011118;28;20046;-80